sensor_id;sensor_type;location;lat;lon;timestamp;pressure;altitude;pressure_sealevel;temperature;humidity
42887;BME280;29032;56.028;92.904;2022-08-01T00:00:46;98194.16;;;19.93;62.84
42887;BME280;29032;56.028;92.904;2022-08-01T00:05:48;98202.94;;;19.99;62.09
42887;BME280;29032;56.028;92.904;2022-08-01T00:10:51;98207.53;;;20.06;61.64
42887;BME280;29032;56.028;92.904;2022-08-01T00:15:54;98210.03;;;20.00;61.66
42887;BME280;29032;56.028;92.904;2022-08-01T00:20:56;98199.47;;;20.00;61.65
42887;BME280;29032;56.028;92.904;2022-08-01T00:25:59;98202.69;;;20.09;61.56
42887;BME280;29032;56.028;92.904;2022-08-01T00:31:01;98202.31;;;20.00;61.82
42887;BME280;29032;56.028;92.904;2022-08-01T00:36:04;98204.41;;;20.00;61.85
42887;BME280;29032;56.028;92.904;2022-08-01T00:41:07;98203.41;;;20.09;61.43
42887;BME280;29032;56.028;92.904;2022-08-01T00:46:09;98204.78;;;20.08;61.62
42887;BME280;29032;56.028;92.904;2022-08-01T00:51:12;98214.63;;;20.07;61.07
42887;BME280;29032;56.028;92.904;2022-08-01T00:56:16;98221.94;;;20.12;61.14
42887;BME280;29032;56.028;92.904;2022-08-01T01:01:18;98215.66;;;20.14;61.34
42887;BME280;29032;56.028;92.904;2022-08-01T01:06:34;98213.09;;;20.34;60.74
42887;BME280;29032;56.028;92.904;2022-08-01T01:11:45;98205.44;;;20.36;60.69
42887;BME280;29032;56.028;92.904;2022-08-01T01:16:49;98209.34;;;20.29;60.90
42887;BME280;29032;56.028;92.904;2022-08-01T01:22:22;98211.13;;;20.52;60.53
42887;BME280;29032;56.028;92.904;2022-08-01T01:27:36;98203.25;;;20.64;60.00
42887;BME280;29032;56.028;92.904;2022-08-01T01:32:44;98193.69;;;20.71;59.02
42887;BME280;29032;56.028;92.904;2022-08-01T01:37:51;98203.19;;;20.78;58.64
42887;BME280;29032;56.028;92.904;2022-08-01T01:42:56;98207.56;;;20.81;58.64
42887;BME280;29032;56.028;92.904;2022-08-01T01:48:01;98208.69;;;20.90;58.16
42887;BME280;29032;56.028;92.904;2022-08-01T01:53:04;98203.63;;;20.88;58.31
42887;BME280;29032;56.028;92.904;2022-08-01T01:58:08;98203.75;;;20.90;58.42
42887;BME280;29032;56.028;92.904;2022-08-01T02:03:16;98198.19;;;20.92;58.78
42887;BME280;29032;56.028;92.904;2022-08-01T02:08:20;98205.22;;;20.91;58.55
42887;BME280;29032;56.028;92.904;2022-08-01T02:13:23;98192.53;;;20.92;58.19
42887;BME280;29032;56.028;92.904;2022-08-01T02:18:27;98197.28;;;21.03;57.95
42887;BME280;29032;56.028;92.904;2022-08-01T02:23:31;98182.84;;;21.13;57.77
42887;BME280;29032;56.028;92.904;2022-08-01T02:28:38;98171.25;;;21.23;57.46
42887;BME280;29032;56.028;92.904;2022-08-01T02:33:46;98168.34;;;21.36;57.14
42887;BME280;29032;56.028;92.904;2022-08-01T02:38:50;98155.63;;;21.37;56.75
42887;BME280;29032;56.028;92.904;2022-08-01T02:43:59;98158.25;;;21.49;56.66
42887;BME280;29032;56.028;92.904;2022-08-01T02:49:04;98155.69;;;21.55;56.78
42887;BME280;29032;56.028;92.904;2022-08-01T02:54:10;98162.44;;;21.64;56.08
42887;BME280;29032;56.028;92.904;2022-08-01T02:59:14;98158.41;;;21.69;56.06
42887;BME280;29032;56.028;92.904;2022-08-01T03:04:20;98148.22;;;21.80;56.14
42887;BME280;29032;56.028;92.904;2022-08-01T03:09:25;98135.84;;;21.89;55.11
42887;BME280;29032;56.028;92.904;2022-08-01T03:14:29;98139.66;;;21.96;55.05
42887;BME280;29032;56.028;92.904;2022-08-01T03:19:34;98144.38;;;22.07;55.85
42887;BME280;29032;56.028;92.904;2022-08-01T03:24:38;98145.03;;;22.23;54.61
42887;BME280;29032;56.028;92.904;2022-08-01T03:29:41;98143.72;;;22.26;53.83
42887;BME280;29032;56.028;92.904;2022-08-01T03:34:46;98144.13;;;22.36;53.66
42887;BME280;29032;56.028;92.904;2022-08-01T03:39:52;98144.53;;;22.46;52.92
42887;BME280;29032;56.028;92.904;2022-08-01T03:44:59;98139.00;;;22.51;53.35
42887;BME280;29032;56.028;92.904;2022-08-01T03:50:06;98134.22;;;22.55;52.86
42887;BME280;29032;56.028;92.904;2022-08-01T03:55:10;98132.41;;;22.64;52.48
42887;BME280;29032;56.028;92.904;2022-08-01T04:00:14;98129.91;;;22.72;51.94
42887;BME280;29032;56.028;92.904;2022-08-01T04:05:18;98121.78;;;22.82;51.61
42887;BME280;29032;56.028;92.904;2022-08-01T04:10:20;98121.06;;;22.82;50.84
42887;BME280;29032;56.028;92.904;2022-08-01T04:15:22;98107.22;;;22.92;51.77
42887;BME280;29032;56.028;92.904;2022-08-01T04:20:26;98104.28;;;23.08;50.55
42887;BME280;29032;56.028;92.904;2022-08-01T04:25:33;98096.03;;;23.16;50.12
42887;BME280;29032;56.028;92.904;2022-08-01T04:30:36;98087.78;;;23.24;48.98
42887;BME280;29032;56.028;92.904;2022-08-01T04:35:41;98091.78;;;23.37;48.41
42887;BME280;29032;56.028;92.904;2022-08-01T04:40:45;98091.22;;;23.40;48.53
42887;BME280;29032;56.028;92.904;2022-08-01T04:45:48;98088.59;;;23.46;48.86
42887;BME280;29032;56.028;92.904;2022-08-01T04:50:53;98089.38;;;23.71;49.15
42887;BME280;29032;56.028;92.904;2022-08-01T04:55:55;98086.81;;;23.79;46.76
42887;BME280;29032;56.028;92.904;2022-08-01T05:00:57;98082.66;;;23.82;47.23
42887;BME280;29032;56.028;92.904;2022-08-01T05:06:00;98076.63;;;23.94;47.72
42887;BME280;29032;56.028;92.904;2022-08-01T05:11:02;98061.91;;;23.99;47.29
42887;BME280;29032;56.028;92.904;2022-08-01T05:16:05;98058.38;;;24.01;47.01
42887;BME280;29032;56.028;92.904;2022-08-01T05:21:08;98057.25;;;24.10;47.64
42887;BME280;29032;56.028;92.904;2022-08-01T05:26:11;98048.31;;;24.20;47.63
42887;BME280;29032;56.028;92.904;2022-08-01T05:31:13;98050.03;;;24.29;45.66
42887;BME280;29032;56.028;92.904;2022-08-01T05:36:16;98041.78;;;24.39;46.43
42887;BME280;29032;56.028;92.904;2022-08-01T05:41:18;98049.81;;;24.47;45.72
42887;BME280;29032;56.028;92.904;2022-08-01T05:46:20;98034.31;;;24.52;46.42
42887;BME280;29032;56.028;92.904;2022-08-01T05:51:24;98039.56;;;24.61;46.01
42887;BME280;29032;56.028;92.904;2022-08-01T05:56:26;98031.53;;;24.78;45.58
42887;BME280;29032;56.028;92.904;2022-08-01T06:01:29;98027.13;;;24.99;45.02
42887;BME280;29032;56.028;92.904;2022-08-01T06:06:32;98018.84;;;25.09;43.52
42887;BME280;29032;56.028;92.904;2022-08-01T06:11:34;98007.59;;;25.15;43.78
42887;BME280;29032;56.028;92.904;2022-08-01T06:16:36;97998.75;;;25.31;42.30
42887;BME280;29032;56.028;92.904;2022-08-01T06:21:40;97990.75;;;25.53;41.74
42887;BME280;29032;56.028;92.904;2022-08-01T06:26:42;97986.88;;;25.68;41.90
42887;BME280;29032;56.028;92.904;2022-08-01T06:31:44;97986.91;;;25.70;40.49
42887;BME280;29032;56.028;92.904;2022-08-01T06:36:48;97995.31;;;25.64;41.08
42887;BME280;29032;56.028;92.904;2022-08-01T06:41:50;97988.16;;;25.63;40.53
42887;BME280;29032;56.028;92.904;2022-08-01T06:46:52;97984.34;;;25.83;41.34
42887;BME280;29032;56.028;92.904;2022-08-01T06:51:55;97990.00;;;26.13;40.83
42887;BME280;29032;56.028;92.904;2022-08-01T06:56:57;97985.41;;;26.32;39.93
42887;BME280;29032;56.028;92.904;2022-08-01T07:02:00;97978.53;;;26.45;39.70
42887;BME280;29032;56.028;92.904;2022-08-01T07:07:03;97978.19;;;26.61;40.45
42887;BME280;29032;56.028;92.904;2022-08-01T07:12:06;97976.19;;;26.69;40.43
42887;BME280;29032;56.028;92.904;2022-08-01T07:17:08;97978.47;;;26.77;40.23
42887;BME280;29032;56.028;92.904;2022-08-01T07:22:12;97972.09;;;26.80;40.11
42887;BME280;29032;56.028;92.904;2022-08-01T07:27:14;97968.50;;;26.78;40.23
42887;BME280;29032;56.028;92.904;2022-08-01T07:32:16;97966.38;;;26.78;39.32
42887;BME280;29032;56.028;92.904;2022-08-01T07:37:20;97984.94;;;26.79;40.62
42887;BME280;29032;56.028;92.904;2022-08-01T07:42:22;97973.41;;;26.73;40.04
42887;BME280;29032;56.028;92.904;2022-08-01T07:47:24;97967.69;;;26.73;39.50
42887;BME280;29032;56.028;92.904;2022-08-01T07:52:28;97959.19;;;26.75;39.92
42887;BME280;29032;56.028;92.904;2022-08-01T07:57:30;97956.28;;;26.73;40.24
42887;BME280;29032;56.028;92.904;2022-08-01T08:02:32;97955.63;;;26.77;39.70
42887;BME280;29032;56.028;92.904;2022-08-01T08:07:36;97955.66;;;26.79;40.05
42887;BME280;29032;56.028;92.904;2022-08-01T08:12:38;97958.38;;;26.71;39.99
42887;BME280;29032;56.028;92.904;2022-08-01T08:17:40;97956.91;;;26.68;40.15
42887;BME280;29032;56.028;92.904;2022-08-01T08:22:44;97965.75;;;26.84;39.86
42887;BME280;29032;56.028;92.904;2022-08-01T08:27:46;97959.50;;;26.94;39.23
42887;BME280;29032;56.028;92.904;2022-08-01T08:32:48;97963.78;;;26.95;38.98
42887;BME280;29032;56.028;92.904;2022-08-01T08:37:52;97952.47;;;26.99;40.22
42887;BME280;29032;56.028;92.904;2022-08-01T08:42:54;97961.75;;;27.42;39.24
42887;BME280;29032;56.028;92.904;2022-08-01T08:47:56;97970.38;;;27.92;38.42
42887;BME280;29032;56.028;92.904;2022-08-01T08:53:01;97970.75;;;28.21;37.56
42887;BME280;29032;56.028;92.904;2022-08-01T08:58:04;97965.94;;;28.31;37.14
42887;BME280;29032;56.028;92.904;2022-08-01T09:03:07;97958.22;;;28.44;37.40
42887;BME280;29032;56.028;92.904;2022-08-01T09:08:10;97963.41;;;28.60;36.85
42887;BME280;29032;56.028;92.904;2022-08-01T09:13:14;97956.22;;;28.59;35.88
42887;BME280;29032;56.028;92.904;2022-08-01T09:18:31;97953.88;;;28.41;37.57
42887;BME280;29032;56.028;92.904;2022-08-01T09:23:37;97943.88;;;27.87;37.08
42887;BME280;29032;56.028;92.904;2022-08-01T09:28:40;97940.78;;;27.71;37.21
42887;BME280;29032;56.028;92.904;2022-08-01T09:33:53;97938.59;;;27.68;36.39
42887;BME280;29032;56.028;92.904;2022-08-01T09:39:12;97944.25;;;27.66;38.67
42887;BME280;29032;56.028;92.904;2022-08-01T09:44:16;97937.44;;;27.39;38.26
42887;BME280;29032;56.028;92.904;2022-08-01T09:49:29;97948.09;;;27.36;39.25
42887;BME280;29032;56.028;92.904;2022-08-01T09:54:33;97954.28;;;27.22;38.58
42887;BME280;29032;56.028;92.904;2022-08-01T09:59:35;97939.69;;;27.04;38.37
42887;BME280;29032;56.028;92.904;2022-08-01T10:04:38;97971.44;;;26.82;40.21
42887;BME280;29032;56.028;92.904;2022-08-01T10:09:48;97973.13;;;26.59;41.84
42887;BME280;29032;56.028;92.904;2022-08-01T10:14:51;97983.91;;;26.28;42.45
42887;BME280;29032;56.028;92.904;2022-08-01T10:19:54;98000.69;;;26.12;42.15
42887;BME280;29032;56.028;92.904;2022-08-01T10:25:03;98021.97;;;26.07;42.08
42887;BME280;29032;56.028;92.904;2022-08-01T10:30:07;98019.94;;;25.82;41.81
42887;BME280;29032;56.028;92.904;2022-08-01T10:35:10;98018.25;;;25.70;42.03
42887;BME280;29032;56.028;92.904;2022-08-01T10:40:15;98005.88;;;25.60;42.55
42887;BME280;29032;56.028;92.904;2022-08-01T10:45:17;98020.34;;;25.40;43.76
42887;BME280;29032;56.028;92.904;2022-08-01T10:50:37;98007.56;;;25.41;45.92
42887;BME280;29032;56.028;92.904;2022-08-01T10:55:50;97999.97;;;25.24;44.73
42887;BME280;29032;56.028;92.904;2022-08-01T11:01:18;98027.41;;;25.11;46.21
42887;BME280;29032;56.028;92.904;2022-08-01T11:06:23;98034.94;;;24.72;47.66
42887;BME280;29032;56.028;92.904;2022-08-01T11:11:30;98035.28;;;24.60;46.49
42887;BME280;29032;56.028;92.904;2022-08-01T11:16:34;98037.84;;;24.50;46.28
42887;BME280;29032;56.028;92.904;2022-08-01T11:21:58;98044.00;;;24.67;46.34
42887;BME280;29032;56.028;92.904;2022-08-01T11:27:20;98048.06;;;24.59;46.67
42887;BME280;29032;56.028;92.904;2022-08-01T11:32:26;98055.94;;;24.37;46.90
42887;BME280;29032;56.028;92.904;2022-08-01T11:37:29;98069.06;;;24.24;47.87
42887;BME280;29032;56.028;92.904;2022-08-01T11:42:33;98099.91;;;24.34;47.41
42887;BME280;29032;56.028;92.904;2022-08-01T11:47:46;98134.31;;;24.42;47.60
42887;BME280;29032;56.028;92.904;2022-08-01T11:52:57;98173.13;;;24.33;48.55
42887;BME280;29032;56.028;92.904;2022-08-01T11:58:02;98191.50;;;24.06;51.66
42887;BME280;29032;56.028;92.904;2022-08-01T12:03:06;98187.03;;;23.60;56.47
42887;BME280;29032;56.028;92.904;2022-08-01T12:08:09;98158.69;;;23.02;60.08
42887;BME280;29032;56.028;92.904;2022-08-01T12:13:12;98185.59;;;22.81;59.75
42887;BME280;29032;56.028;92.904;2022-08-01T12:18:15;98183.81;;;22.54;62.06
42887;BME280;29032;56.028;92.904;2022-08-01T12:23:18;98197.03;;;22.47;62.39
42887;BME280;29032;56.028;92.904;2022-08-01T12:28:21;98196.84;;;22.43;61.36
42887;BME280;29032;56.028;92.904;2022-08-01T12:33:23;98191.69;;;22.20;61.84
42887;BME280;29032;56.028;92.904;2022-08-01T12:38:26;98198.16;;;22.05;63.11
42887;BME280;29032;56.028;92.904;2022-08-01T12:43:31;98196.41;;;21.98;62.31
42887;BME280;29032;56.028;92.904;2022-08-01T12:48:33;98182.59;;;21.72;63.38
42887;BME280;29032;56.028;92.904;2022-08-01T12:53:36;98173.94;;;21.52;63.66
42887;BME280;29032;56.028;92.904;2022-08-01T12:58:39;98171.63;;;21.47;64.59
42887;BME280;29032;56.028;92.904;2022-08-01T13:03:57;98174.22;;;21.58;63.17
42887;BME280;29032;56.028;92.904;2022-08-01T13:09:05;98197.38;;;21.53;63.68
42887;BME280;29032;56.028;92.904;2022-08-01T13:14:09;98213.81;;;21.41;64.15
42887;BME280;29032;56.028;92.904;2022-08-01T13:19:11;98218.72;;;21.24;63.51
42887;BME280;29032;56.028;92.904;2022-08-01T13:24:13;98223.84;;;21.12;64.51
42887;BME280;29032;56.028;92.904;2022-08-01T13:29:18;98213.91;;;21.11;64.54
42887;BME280;29032;56.028;92.904;2022-08-01T13:34:29;98219.47;;;21.25;63.52
42887;BME280;29032;56.028;92.904;2022-08-01T13:39:31;98230.75;;;21.09;65.57
42887;BME280;29032;56.028;92.904;2022-08-01T13:44:35;98245.19;;;21.15;65.00
42887;BME280;29032;56.028;92.904;2022-08-01T13:49:37;98246.84;;;21.04;65.47
42887;BME280;29032;56.028;92.904;2022-08-01T13:54:39;98257.44;;;21.04;66.26
42887;BME280;29032;56.028;92.904;2022-08-01T13:59:43;98267.75;;;21.13;65.76
42887;BME280;29032;56.028;92.904;2022-08-01T14:04:45;98256.50;;;20.99;66.29
42887;BME280;29032;56.028;92.904;2022-08-01T14:09:47;98261.22;;;20.95;65.88
42887;BME280;29032;56.028;92.904;2022-08-01T14:14:51;98266.88;;;20.95;65.90
42887;BME280;29032;56.028;92.904;2022-08-01T14:19:53;98253.53;;;20.81;66.73
42887;BME280;29032;56.028;92.904;2022-08-01T14:24:55;98266.50;;;20.87;66.58
42887;BME280;29032;56.028;92.904;2022-08-01T14:29:58;98275.28;;;20.93;66.33
42887;BME280;29032;56.028;92.904;2022-08-01T14:35:00;98272.09;;;20.84;65.78
42887;BME280;29032;56.028;92.904;2022-08-01T14:40:04;98269.06;;;20.80;65.82
42887;BME280;29032;56.028;92.904;2022-08-01T14:45:09;98277.44;;;20.78;65.39
42887;BME280;29032;56.028;92.904;2022-08-01T14:50:14;98278.53;;;20.71;65.26
42887;BME280;29032;56.028;92.904;2022-08-01T14:55:16;98273.63;;;20.58;65.43
42887;BME280;29032;56.028;92.904;2022-08-01T15:00:20;98277.81;;;20.57;64.85
42887;BME280;29032;56.028;92.904;2022-08-01T15:05:22;98284.25;;;20.44;65.17
42887;BME280;29032;56.028;92.904;2022-08-01T15:10:24;98291.50;;;20.33;65.53
42887;BME280;29032;56.028;92.904;2022-08-01T15:15:28;98292.13;;;20.18;66.04
42887;BME280;29032;56.028;92.904;2022-08-01T15:20:30;98293.16;;;20.24;66.87
42887;BME280;29032;56.028;92.904;2022-08-01T15:25:32;98289.75;;;20.26;66.56
42887;BME280;29032;56.028;92.904;2022-08-01T15:30:36;98297.03;;;20.31;67.16
42887;BME280;29032;56.028;92.904;2022-08-01T15:35:38;98303.13;;;20.25;65.47
42887;BME280;29032;56.028;92.904;2022-08-01T15:40:40;98307.13;;;20.20;66.08
42887;BME280;29032;56.028;92.904;2022-08-01T15:45:44;98300.81;;;20.22;66.95
42887;BME280;29032;56.028;92.904;2022-08-01T15:50:47;98308.56;;;20.21;66.33
42887;BME280;29032;56.028;92.904;2022-08-01T15:55:49;98302.41;;;20.11;66.38
42887;BME280;29032;56.028;92.904;2022-08-01T16:00:53;98293.63;;;20.19;65.92
42887;BME280;29032;56.028;92.904;2022-08-01T16:05:55;98292.28;;;20.06;67.04
42887;BME280;29032;56.028;92.904;2022-08-01T16:10:57;98273.22;;;20.07;67.32
42887;BME280;29032;56.028;92.904;2022-08-01T16:16:01;98285.56;;;20.13;66.91
42887;BME280;29032;56.028;92.904;2022-08-01T16:21:03;98279.28;;;20.01;65.96
42887;BME280;29032;56.028;92.904;2022-08-01T16:26:06;98292.59;;;19.98;65.92
42887;BME280;29032;56.028;92.904;2022-08-01T16:31:09;98281.41;;;20.00;65.61
42887;BME280;29032;56.028;92.904;2022-08-01T16:36:11;98283.81;;;19.92;67.13
42887;BME280;29032;56.028;92.904;2022-08-01T16:41:14;98284.97;;;19.87;65.50
42887;BME280;29032;56.028;92.904;2022-08-01T16:46:24;98281.50;;;19.89;66.52
42887;BME280;29032;56.028;92.904;2022-08-01T16:51:26;98293.00;;;19.79;65.56
42887;BME280;29032;56.028;92.904;2022-08-01T16:56:29;98288.28;;;19.70;66.19
42887;BME280;29032;56.028;92.904;2022-08-01T17:01:32;98297.56;;;19.59;65.85
42887;BME280;29032;56.028;92.904;2022-08-01T17:06:34;98316.88;;;19.37;65.42
42887;BME280;29032;56.028;92.904;2022-08-01T17:11:37;98313.06;;;19.18;65.42
42887;BME280;29032;56.028;92.904;2022-08-01T17:16:41;98311.41;;;19.13;65.65
42887;BME280;29032;56.028;92.904;2022-08-01T17:21:43;98320.91;;;18.94;65.96
42887;BME280;29032;56.028;92.904;2022-08-01T17:26:45;98334.16;;;18.92;65.22
42887;BME280;29032;56.028;92.904;2022-08-01T17:31:48;98339.81;;;18.92;65.59
42887;BME280;29032;56.028;92.904;2022-08-01T17:36:51;98348.19;;;18.78;66.18
42887;BME280;29032;56.028;92.904;2022-08-01T17:41:53;98352.63;;;18.70;65.72
42887;BME280;29032;56.028;92.904;2022-08-01T17:46:56;98368.19;;;18.71;64.86
42887;BME280;29032;56.028;92.904;2022-08-01T17:51:58;98372.69;;;18.50;64.55
42887;BME280;29032;56.028;92.904;2022-08-01T17:57:01;98368.66;;;18.30;64.66
42887;BME280;29032;56.028;92.904;2022-08-01T18:02:04;98379.44;;;18.22;64.96
42887;BME280;29032;56.028;92.904;2022-08-01T18:12:08;98394.97;;;17.99;65.42
42887;BME280;29032;56.028;92.904;2022-08-01T18:17:12;98406.25;;;17.99;65.57
42887;BME280;29032;56.028;92.904;2022-08-01T18:22:14;98398.16;;;17.82;65.43
42887;BME280;29032;56.028;92.904;2022-08-01T18:27:16;98390.81;;;17.77;65.70
42887;BME280;29032;56.028;92.904;2022-08-01T18:32:19;98405.53;;;17.87;65.79
42887;BME280;29032;56.028;92.904;2022-08-01T18:37:21;98405.78;;;17.79;65.58
42887;BME280;29032;56.028;92.904;2022-08-01T18:42:23;98415.31;;;17.74;65.66
42887;BME280;29032;56.028;92.904;2022-08-01T18:47:27;98420.19;;;17.74;65.34
42887;BME280;29032;56.028;92.904;2022-08-01T18:52:29;98423.09;;;17.64;65.37
42887;BME280;29032;56.028;92.904;2022-08-01T18:57:31;98432.16;;;17.63;64.68
42887;BME280;29032;56.028;92.904;2022-08-01T19:02:35;98431.78;;;17.56;64.77
42887;BME280;29032;56.028;92.904;2022-08-01T19:07:37;98439.72;;;17.48;64.91
42887;BME280;29032;56.028;92.904;2022-08-01T19:12:39;98444.72;;;17.50;65.22
42887;BME280;29032;56.028;92.904;2022-08-01T19:17:43;98447.31;;;17.57;63.75
42887;BME280;29032;56.028;92.904;2022-08-01T19:22:44;98448.53;;;17.54;62.94
42887;BME280;29032;56.028;92.904;2022-08-01T19:27:48;98442.28;;;17.56;62.91
42887;BME280;29032;56.028;92.904;2022-08-01T19:32:53;98442.19;;;17.54;62.87
42887;BME280;29032;56.028;92.904;2022-08-01T19:37:57;98442.66;;;17.50;62.60
42887;BME280;29032;56.028;92.904;2022-08-01T19:43:00;98437.16;;;17.52;62.04
42887;BME280;29032;56.028;92.904;2022-08-01T19:48:05;98428.44;;;17.48;62.42
42887;BME280;29032;56.028;92.904;2022-08-01T19:53:10;98440.31;;;17.47;61.53
42887;BME280;29032;56.028;92.904;2022-08-01T19:58:14;98443.06;;;17.35;63.28
42887;BME280;29032;56.028;92.904;2022-08-01T20:03:18;98447.09;;;17.32;61.88
42887;BME280;29032;56.028;92.904;2022-08-01T20:08:21;98454.13;;;17.21;61.65
42887;BME280;29032;56.028;92.904;2022-08-01T20:13:24;98462.84;;;17.25;61.85
42887;BME280;29032;56.028;92.904;2022-08-01T20:18:28;98465.09;;;17.39;61.58
42887;BME280;29032;56.028;92.904;2022-08-01T20:23:31;98459.69;;;17.31;62.28
42887;BME280;29032;56.028;92.904;2022-08-01T20:28:35;98461.41;;;17.36;61.87
42887;BME280;29032;56.028;92.904;2022-08-01T20:33:42;98475.88;;;17.42;61.60
42887;BME280;29032;56.028;92.904;2022-08-01T20:38:44;98471.28;;;17.25;60.88
42887;BME280;29032;56.028;92.904;2022-08-01T20:43:47;98473.63;;;17.29;61.38
42887;BME280;29032;56.028;92.904;2022-08-01T20:48:54;98469.72;;;17.34;61.51
42887;BME280;29032;56.028;92.904;2022-08-01T20:53:56;98477.78;;;17.28;61.29
42887;BME280;29032;56.028;92.904;2022-08-01T20:59:03;98473.75;;;17.31;61.41
42887;BME280;29032;56.028;92.904;2022-08-01T21:04:17;98490.75;;;17.33;60.63
42887;BME280;29032;56.028;92.904;2022-08-01T21:09:24;98488.50;;;17.20;60.41
42887;BME280;29032;56.028;92.904;2022-08-01T21:14:38;98474.84;;;17.26;60.34
42887;BME280;29032;56.028;92.904;2022-08-01T21:19:49;98492.16;;;17.22;60.56
42887;BME280;29032;56.028;92.904;2022-08-01T21:24:55;98482.03;;;16.96;59.05
42887;BME280;29032;56.028;92.904;2022-08-01T21:30:02;98484.47;;;16.80;59.74
42887;BME280;29032;56.028;92.904;2022-08-01T21:35:07;98478.72;;;16.78;60.10
42887;BME280;29032;56.028;92.904;2022-08-01T21:40:10;98487.69;;;16.65;60.28
42887;BME280;29032;56.028;92.904;2022-08-01T21:45:13;98489.94;;;16.57;60.33
42887;BME280;29032;56.028;92.904;2022-08-01T21:50:17;98479.13;;;16.63;60.46
42887;BME280;29032;56.028;92.904;2022-08-01T21:55:23;98494.66;;;16.64;60.67
42887;BME280;29032;56.028;92.904;2022-08-01T22:00:26;98496.75;;;16.54;60.42
42887;BME280;29032;56.028;92.904;2022-08-01T22:05:30;98504.75;;;16.57;61.09
42887;BME280;29032;56.028;92.904;2022-08-01T22:10:34;98498.34;;;16.57;60.86
42887;BME280;29032;56.028;92.904;2022-08-01T22:15:41;98509.13;;;16.70;60.75
42887;BME280;29032;56.028;92.904;2022-08-01T22:20:45;98510.88;;;16.96;59.50
42887;BME280;29032;56.028;92.904;2022-08-01T22:25:50;98509.25;;;16.72;60.29
42887;BME280;29032;56.028;92.904;2022-08-01T22:30:52;98513.31;;;16.59;60.60
42887;BME280;29032;56.028;92.904;2022-08-01T22:35:57;98517.00;;;16.62;60.85
42887;BME280;29032;56.028;92.904;2022-08-01T22:41:02;98516.88;;;16.50;60.72
42887;BME280;29032;56.028;92.904;2022-08-01T22:46:12;98514.97;;;16.53;60.85
42887;BME280;29032;56.028;92.904;2022-08-01T22:51:43;98514.19;;;16.62;60.20
42887;BME280;29032;56.028;92.904;2022-08-01T22:56:49;98509.41;;;16.33;60.47
42887;BME280;29032;56.028;92.904;2022-08-01T23:01:59;98519.59;;;16.38;60.52
42887;BME280;29032;56.028;92.904;2022-08-01T23:07:04;98520.78;;;16.35;59.96
42887;BME280;29032;56.028;92.904;2022-08-01T23:12:08;98514.13;;;16.31;60.14
42887;BME280;29032;56.028;92.904;2022-08-01T23:17:12;98522.00;;;16.23;60.05
42887;BME280;29032;56.028;92.904;2022-08-01T23:22:16;98515.38;;;16.18;60.56
42887;BME280;29032;56.028;92.904;2022-08-01T23:27:19;98516.84;;;16.19;60.64
42887;BME280;29032;56.028;92.904;2022-08-01T23:32:22;98516.84;;;16.19;60.88
42887;BME280;29032;56.028;92.904;2022-08-01T23:37:25;98526.28;;;16.33;60.98
42887;BME280;29032;56.028;92.904;2022-08-01T23:42:27;98531.16;;;16.33;60.23
42887;BME280;29032;56.028;92.904;2022-08-01T23:47:30;98542.56;;;16.25;60.17
42887;BME280;29032;56.028;92.904;2022-08-01T23:52:34;98549.22;;;16.20;60.45
42887;BME280;29032;56.028;92.904;2022-08-01T23:57:36;98546.16;;;16.06;60.50
